Ana Sayfa
METAR-TAF:

METAR-TAF

Havaalanları :

Rocky Mount-Wilson Regional Airport

Rocky Mount, Kuzey Carolina, Amerika Birleşik Devletleri

Enlem: 35-51-18N, Boylam: 077-53-35W, yükseklik: 49 m

Güncel hava durumu gözlemi

Rapor saat 16:53 UTC de 46 dakika önce yapıldı.
Rüzgar değişken yönden 4 kt
Sıcaklık 18°C
Nem 45%
Basınç 1020 hPa
Görüş mesafesi: 16.1 km
Açık gökyüzü

METAR: KRWI 051653Z AUTO VRB04KT 10SM CLR 18/06 A3012 RMK AO2 SLP200 T01830061

Saat: 13:39 (17:39 UTC)

Tahmin

Rapor saat 12:41 UTC de 4 saat ve 58 dakika önce yapıldı.
Ayın 05'si saat 13 UTC'den ayın 06'si saat 12 UTC'ye kadar geçerli Tahmin
Rüzgar doğudan 4 kt
Görüş mesafesi: 10 km
25000 ft yükseklikte parçalı bulutlu

TAF: KRWI 051241Z 0513/0612 09004KT P6SM SCT250

4.000'den fazla havaalanı için hava durumu gözlemleri ve tahminleri (METAR ve TAF raporları).

Kullanılabilir istasyonlar harita üzerinde sarı ve kırmızı noktalarla gösterilir.

İstasyonun adını görmek için fareyi noktanın üzerinde gezdirin.

Sonrasında hava gözlem ve tahminlerini görmek için tıklayın.

Haritayı değiştirmek için: yaklaştırmak için siyah artı işaretli yeşil düğmeye ve uzaklaştırmak için de eksi işaretli düğmeye hızla tıklayın; bitişik haritalar için yeşil okları kullanın.


METAR-TAF: